SBPASAEZ

Guest
Details From SBPA - Salgado Filho
To SAEZ - Ministro Pistarini (ezeiza)
Flight Number -
Tags Generated
Created
Modified
Stats Distance 471 nm / 873 km
Max Altitude 0 ft / 0 m
Waypoints 3
Social Downloads 0
Likes 0
Share VATSIM

Download

Looking for another format? Having issues loading an existing format? Contact us
Advertisement - Login to hide

Notes

Generated

Route

SBPA AER16 SAEZ

ID Type Via Altitude Latitude Longitude Leg Dist Tot Dist Heading (true) Name
O SBPA APT - 0 ft / 0 m -29.99414˚ -51.18327˚ - 0 nm - -
AER16 FIX - 0 ft / 0 m -34.62450˚ -58.24667˚ 453 nm 453 nm 230° / 234° -
O SAEZ APT - 0 ft / 0 m -34.80841˚ -58.53386˚ 17 nm 471 nm 232° / 232° -

Altitude Profile

Advertisement - Login to hide

Weather


0- 5 10 15 20 25 30 35+ Temperature / ° C

Clouds and Precipitation
Forecast for 2017-12-14 18:00 UTC. Updated 6 minutes ago

Ground ~20,000 ft ~40,000 ft Winds

SBPA

Details ICAO SBPA (POA)
Name Salgado Filho
Region Brazil
Timezone America/Sao_Paulo (UTC-2.0)
Stats Elevation 11 ft / 3 m (AMSL)
Location -29.994428° -51.171426°
Runways 1
Magnetic Variation 16.878° W

METAR

SBPA 141700Z 29011KT 9999 FEW045 33/21 Q1010

Decode

TAF

Not found

Departure Runways

ID Width Length Bearing (true) Bearing (mag) Surface Threshold Offset Overrun Length
11 138 ft / 42 m 7,487 ft / 2,282 m 91.60° 108.48° Asphalt 0 ft / 0 m 230 ft / 70 m
29 138 ft / 42 m 7,487 ft / 2,282 m 271.59° 288.47° Asphalt 0 ft / 0 m 197 ft / 60 m

SAEZ

Details ICAO SAEZ (EZE)
Name Ministro Pistarini (Ezeiza)
Region Argentina
Timezone America/Argentina/Buenos_Aires (UTC-3.0)
Stats Elevation 66 ft / 20 m (AMSL)
Location -34.821380° -58.532731°
Runways 2
Magnetic Variation 8.723° W

METAR

SAEZ 141700Z 28015KT CAVOK 32/14 Q1009

Decode

TAF

TAF TAF SAEZ 141100Z 1412/1512 27010KT 7000 FEW010 TX34/1419Z TN19/1509Z BECMG 1413/1415 24010KT CAVOK BECMG 1503/1505 07005KT BECMG 1506/1508 04008KT

Decode

Destination Runways

ID Width Length Bearing (true) Bearing (mag) Surface Threshold Offset Overrun Length
11 190 ft / 58 m 10,778 ft / 3,285 m 102.20° 110.92° Asphalt 0 ft / 0 m 0 ft / 0 m
17 151 ft / 46 m 9,153 ft / 2,790 m 163.98° 172.70° Asphalt 0 ft / 0 m 98 ft / 30 m
29 190 ft / 58 m 10,778 ft / 3,285 m 282.18° 290.90° Asphalt 0 ft / 0 m 115 ft / 35 m
35 151 ft / 46 m 9,153 ft / 2,790 m 343.98° 352.70° Asphalt 984 ft / 300 m 1,024 ft / 312 m

Approach Navaids

Runway Type Ident Frequency Range Bearing (true) Bearing (mag) Slope Elevation
11 Localiser PC 110.10 MHz 18 nm / 33 km 102.08° 110.80° - 66 ft / 20 m (AMSL)
11 Glidescope PC 110.10 MHz 10 nm / 19 km 102.28° 111.00° 3.00° 66 ft / 20 m (AMSL)
11 DME PC 110.10 MHz 18 nm / 33 km - - - 66 ft / 20 m (AMSL)
35 Localiser EZ 108.70 MHz 18 nm / 33 km 343.90° 352.63° - 66 ft / 20 m (AMSL)
35 Glidescope EZ 108.70 MHz 10 nm / 19 km 344.06° 352.79° 3.00° 66 ft / 20 m (AMSL)
35 DME EZ 108.70 MHz 18 nm / 33 km - - - 66 ft / 20 m (AMSL)

Popular Alternatives